sensor_id;sensor_type;location;lat;lon;timestamp;pressure;altitude;pressure_sealevel;temperature;humidity
7930;BME280;4010;42.698;23.124;2022-10-16T00:01:04;54663.25;;;-140.64;100.00
7930;BME280;4010;42.698;23.124;2022-10-16T00:03:31;55180.50;;;-140.64;100.00
7930;BME280;4010;42.698;23.124;2022-10-16T00:06:01;55439.16;;;-140.64;100.00
7930;BME280;4010;42.698;23.124;2022-10-16T00:08:28;55697.81;;;-140.64;100.00
7930;BME280;4010;42.698;23.124;2022-10-16T00:10:59;55180.50;;;-140.64;100.00
7930;BME280;4010;42.698;23.124;2022-10-16T00:13:27;54921.84;;;-140.64;100.00
7930;BME280;4010;42.698;23.124;2022-10-16T00:15:55;55180.50;;;-140.64;100.00
7930;BME280;4010;42.698;23.124;2022-10-16T00:18:23;54663.25;;;-140.64;100.00
7930;BME280;4010;42.698;23.124;2022-10-16T00:20:50;54404.63;;;-140.64;100.00
7930;BME280;4010;42.698;23.124;2022-10-16T00:23:18;54663.25;;;-140.64;100.00
7930;BME280;4010;42.698;23.124;2022-10-16T00:26:02;55180.50;;;-140.64;100.00
7930;BME280;4010;42.698;23.124;2022-10-16T00:28:29;55439.16;;;-140.64;100.00
7930;BME280;4010;42.698;23.124;2022-10-16T00:30:56;54663.25;;;-140.64;100.00
7930;BME280;4010;42.698;23.124;2022-10-16T00:33:23;54146.06;;;-140.64;100.00
7930;BME280;4010;42.698;23.124;2022-10-16T00:35:50;54146.06;;;-140.64;100.00
7930;BME280;4010;42.698;23.124;2022-10-16T00:38:18;54663.25;;;-140.64;100.00
7930;BME280;4010;42.698;23.124;2022-10-16T00:40:45;56991.50;;;-140.64;100.00
7930;BME280;4010;42.698;23.124;2022-10-16T00:43:33;57767.97;;;-140.64;100.00
7930;BME280;4010;42.698;23.124;2022-10-16T00:46:02;58285.69;;;-140.64;100.00
7930;BME280;4010;42.698;23.124;2022-10-16T00:48:30;58544.59;;;-140.64;100.00
7930;BME280;4010;42.698;23.124;2022-10-16T00:50:58;57509.13;;;-140.64;100.00
7930;BME280;4010;42.698;23.124;2022-10-16T00:53:27;57509.13;;;-140.64;100.00
7930;BME280;4010;42.698;23.124;2022-10-16T00:55:54;57250.31;;;-140.64;100.00
7930;BME280;4010;42.698;23.124;2022-10-16T00:58:21;56473.97;;;-140.64;100.00
7930;BME280;4010;42.698;23.124;2022-10-16T01:00:48;55697.81;;;-140.64;100.00
7930;BME280;4010;42.698;23.124;2022-10-16T01:03:27;54663.25;;;-140.64;100.00
7930;BME280;4010;42.698;23.124;2022-10-16T01:06:03;54663.25;;;-140.64;100.00
7930;BME280;4010;42.698;23.124;2022-10-16T01:08:40;54404.63;;;-140.64;100.00
7930;BME280;4010;42.698;23.124;2022-10-16T01:11:17;53887.50;;;-140.64;100.00
7930;BME280;4010;42.698;23.124;2022-10-16T01:13:52;54663.25;;;-140.64;100.00
7930;BME280;4010;42.698;23.124;2022-10-16T01:16:29;53370.44;;;-140.64;100.00
7930;BME280;4010;42.698;23.124;2022-10-16T01:19:07;53628.97;;;-140.64;100.00
7930;BME280;4010;42.698;23.124;2022-10-16T01:21:38;53887.50;;;-140.64;100.00
7930;BME280;4010;42.698;23.124;2022-10-16T01:24:12;53370.44;;;-140.64;100.00
7930;BME280;4010;42.698;23.124;2022-10-16T01:29:44;53887.50;;;-140.64;100.00
7930;BME280;4010;42.698;23.124;2022-10-16T01:32:19;55180.50;;;-140.64;100.00
7930;BME280;4010;42.698;23.124;2022-10-16T01:34:50;55697.81;;;-140.64;100.00
7930;BME280;4010;42.698;23.124;2022-10-16T01:37:25;55180.50;;;-140.64;100.00
7930;BME280;4010;42.698;23.124;2022-10-16T01:39:58;56473.97;;;-140.64;100.00
7930;BME280;4010;42.698;23.124;2022-10-16T01:42:29;56473.97;;;-140.64;100.00
7930;BME280;4010;42.698;23.124;2022-10-16T01:44:59;56473.97;;;-140.64;100.00
7930;BME280;4010;42.698;23.124;2022-10-16T01:47:30;56991.50;;;-140.64;100.00
7930;BME280;4010;42.698;23.124;2022-10-16T01:49:59;55956.53;;;-140.64;100.00
7930;BME280;4010;42.698;23.124;2022-10-16T01:52:29;56991.50;;;-140.64;100.00
7930;BME280;4010;42.698;23.124;2022-10-16T01:54:58;56215.25;;;-140.64;100.00
7930;BME280;4010;42.698;23.124;2022-10-16T01:57:28;56732.72;;;-140.64;100.00
7930;BME280;4010;42.698;23.124;2022-10-16T02:00:00;57250.31;;;-140.64;100.00
7930;BME280;4010;42.698;23.124;2022-10-16T02:02:28;55439.16;;;-140.64;100.00
7930;BME280;4010;42.698;23.124;2022-10-16T02:05:01;55956.53;;;-140.64;100.00
7930;BME280;4010;42.698;23.124;2022-10-16T02:07:29;55956.53;;;-140.64;100.00
7930;BME280;4010;42.698;23.124;2022-10-16T02:09:56;56473.97;;;-140.64;100.00
7930;BME280;4010;42.698;23.124;2022-10-16T02:12:26;56991.50;;;-140.64;100.00
7930;BME280;4010;42.698;23.124;2022-10-16T02:14:53;56991.50;;;-140.64;100.00
7930;BME280;4010;42.698;23.124;2022-10-16T02:17:22;57509.13;;;-140.64;100.00
7930;BME280;4010;42.698;23.124;2022-10-16T02:19:50;57509.13;;;-140.64;100.00
7930;BME280;4010;42.698;23.124;2022-10-16T02:22:23;58026.81;;;-140.64;100.00
7930;BME280;4010;42.698;23.124;2022-10-16T02:24:54;57509.13;;;-140.64;100.00
7930;BME280;4010;42.698;23.124;2022-10-16T02:27:26;57767.97;;;-140.64;100.00
7930;BME280;4010;42.698;23.124;2022-10-16T02:29:59;57767.97;;;-140.64;100.00
7930;BME280;4010;42.698;23.124;2022-10-16T02:32:30;56215.25;;;-140.64;100.00
7930;BME280;4010;42.698;23.124;2022-10-16T02:34:58;55956.53;;;-140.64;100.00
7930;BME280;4010;42.698;23.124;2022-10-16T02:37:27;58803.50;;;-140.64;100.00
7930;BME280;4010;42.698;23.124;2022-10-16T02:39:56;58544.59;;;-140.64;100.00
7930;BME280;4010;42.698;23.124;2022-10-16T02:42:28;59580.34;;;-140.64;100.00
7930;BME280;4010;42.698;23.124;2022-10-16T02:44:56;60875.53;;;-140.64;100.00
7930;BME280;4010;42.698;23.124;2022-10-16T02:47:22;61134.59;;;-140.64;100.00
7930;BME280;4010;42.698;23.124;2022-10-16T02:49:51;60875.53;;;-140.64;100.00
7930;BME280;4010;42.698;23.124;2022-10-16T02:52:17;60098.38;;;-140.64;100.00
7930;BME280;4010;42.698;23.124;2022-10-16T02:54:44;58285.69;;;-140.64;100.00
7930;BME280;4010;42.698;23.124;2022-10-16T02:57:11;56732.72;;;-140.64;100.00
7930;BME280;4010;42.698;23.124;2022-10-16T02:59:38;58285.69;;;-140.64;100.00
7930;BME280;4010;42.698;23.124;2022-10-16T03:02:05;56732.72;;;-140.64;100.00
7930;BME280;4010;42.698;23.124;2022-10-16T03:04:31;58803.50;;;-140.64;100.00
7930;BME280;4010;42.698;23.124;2022-10-16T03:07:00;59580.34;;;-140.64;100.00
7930;BME280;4010;42.698;23.124;2022-10-16T03:09:27;57250.31;;;-140.64;100.00
7930;BME280;4010;42.698;23.124;2022-10-16T03:11:53;58026.81;;;-140.64;100.00
7930;BME280;4010;42.698;23.124;2022-10-16T03:14:20;58026.81;;;-140.64;100.00
7930;BME280;4010;42.698;23.124;2022-10-16T03:16:47;58026.81;;;-140.64;100.00
7930;BME280;4010;42.698;23.124;2022-10-16T03:19:15;60357.41;;;-140.64;100.00
7930;BME280;4010;42.698;23.124;2022-10-16T03:21:42;59839.34;;;-140.64;100.00
7930;BME280;4010;42.698;23.124;2022-10-16T03:24:10;60616.44;;;-140.64;100.00
7930;BME280;4010;42.698;23.124;2022-10-16T03:26:37;60616.44;;;-140.64;100.00
7930;BME280;4010;42.698;23.124;2022-10-16T03:29:04;60357.41;;;-140.64;100.00
7930;BME280;4010;42.698;23.124;2022-10-16T03:31:31;60357.41;;;-140.64;100.00
7930;BME280;4010;42.698;23.124;2022-10-16T03:33:58;60616.44;;;-140.64;100.00
7930;BME280;4010;42.698;23.124;2022-10-16T03:36:25;60875.53;;;-140.64;100.00
7930;BME280;4010;42.698;23.124;2022-10-16T03:38:51;60875.53;;;-140.64;100.00
7930;BME280;4010;42.698;23.124;2022-10-16T03:41:19;60875.53;;;-140.64;100.00
7930;BME280;4010;42.698;23.124;2022-10-16T03:43:46;60616.44;;;-140.64;100.00
7930;BME280;4010;42.698;23.124;2022-10-16T03:46:13;60098.38;;;-140.64;100.00
7930;BME280;4010;42.698;23.124;2022-10-16T03:48:40;61134.59;;;-140.64;100.00
7930;BME280;4010;42.698;23.124;2022-10-16T03:51:06;61393.72;;;-140.64;100.00
7930;BME280;4010;42.698;23.124;2022-10-16T03:53:33;60875.53;;;-140.64;100.00
7930;BME280;4010;42.698;23.124;2022-10-16T03:56:00;61393.72;;;-140.64;100.00
7930;BME280;4010;42.698;23.124;2022-10-16T03:58:28;62171.19;;;-140.64;100.00
7930;BME280;4010;42.698;23.124;2022-10-16T04:00:55;61393.72;;;-140.64;100.00
7930;BME280;4010;42.698;23.124;2022-10-16T04:03:21;62171.19;;;-140.64;100.00
7930;BME280;4010;42.698;23.124;2022-10-16T04:05:48;61393.72;;;-140.64;100.00
7930;BME280;4010;42.698;23.124;2022-10-16T04:08:15;63208.06;;;-140.64;100.00
7930;BME280;4010;42.698;23.124;2022-10-16T04:10:42;62948.81;;;-140.64;100.00
7930;BME280;4010;42.698;23.124;2022-10-16T04:13:09;60875.53;;;-140.64;100.00
7930;BME280;4010;42.698;23.124;2022-10-16T04:15:37;64245.25;;;-140.64;100.00
7930;BME280;4010;42.698;23.124;2022-10-16T04:18:04;63467.31;;;-140.64;100.00
7930;BME280;4010;42.698;23.124;2022-10-16T04:20:31;65023.34;;;-140.64;100.00
7930;BME280;4010;42.698;23.124;2022-10-16T04:22:58;63985.91;;;-140.64;100.00
7930;BME280;4010;42.698;23.124;2022-10-16T04:25:25;64504.59;;;-140.64;100.00
7930;BME280;4010;42.698;23.124;2022-10-16T04:27:52;63985.91;;;-140.64;100.00
7930;BME280;4010;42.698;23.124;2022-10-16T04:30:19;63467.31;;;-140.64;100.00
7930;BME280;4010;42.698;23.124;2022-10-16T04:32:49;63467.31;;;-140.64;100.00
7930;BME280;4010;42.698;23.124;2022-10-16T04:35:16;62948.81;;;-140.64;100.00
7930;BME280;4010;42.698;23.124;2022-10-16T04:37:42;61393.72;;;-140.64;100.00
7930;BME280;4010;42.698;23.124;2022-10-16T04:40:09;60616.44;;;-140.64;100.00
7930;BME280;4010;42.698;23.124;2022-10-16T04:42:36;60357.41;;;-140.64;100.00
7930;BME280;4010;42.698;23.124;2022-10-16T04:45:04;59062.44;;;-140.64;100.00
7930;BME280;4010;42.698;23.124;2022-10-16T04:47:31;59321.38;;;-140.64;100.00
7930;BME280;4010;42.698;23.124;2022-10-16T04:49:59;60357.41;;;-140.64;100.00
7930;BME280;4010;42.698;23.124;2022-10-16T04:52:27;59580.34;;;-140.64;100.00
7930;BME280;4010;42.698;23.124;2022-10-16T04:54:54;58026.81;;;-140.64;100.00
7930;BME280;4010;42.698;23.124;2022-10-16T04:57:25;59321.38;;;-140.64;100.00
7930;BME280;4010;42.698;23.124;2022-10-16T04:59:52;58803.50;;;-140.64;100.00
7930;BME280;4010;42.698;23.124;2022-10-16T05:02:19;58026.81;;;-140.64;100.00
7930;BME280;4010;42.698;23.124;2022-10-16T05:04:45;57250.31;;;-140.64;100.00
7930;BME280;4010;42.698;23.124;2022-10-16T05:07:14;56991.50;;;-140.64;100.00
7930;BME280;4010;42.698;23.124;2022-10-16T05:09:40;57250.31;;;-140.64;100.00
7930;BME280;4010;42.698;23.124;2022-10-16T05:12:07;55956.53;;;-140.64;100.00
7930;BME280;4010;42.698;23.124;2022-10-16T05:14:34;55439.16;;;-140.64;100.00
7930;BME280;4010;42.698;23.124;2022-10-16T05:17:01;54146.06;;;-140.64;100.00
7930;BME280;4010;42.698;23.124;2022-10-16T05:19:27;53111.94;;;-140.64;100.00
7930;BME280;4010;42.698;23.124;2022-10-16T05:21:54;52078.13;;;-140.64;100.00
7930;BME280;4010;42.698;23.124;2022-10-16T05:24:22;51303.00;;;-140.64;100.00
7930;BME280;4010;42.698;23.124;2022-10-16T05:26:50;49495.03;;;-140.64;100.00
7930;BME280;4010;42.698;23.124;2022-10-16T05:29:17;48204.19;;;-140.64;100.00
7930;BME280;4010;42.698;23.124;2022-10-16T05:31:43;47171.91;;;-140.64;100.00
7930;BME280;4010;42.698;23.124;2022-10-16T05:34:10;46139.91;;;-140.64;100.00
7930;BME280;4010;42.698;23.124;2022-10-16T05:36:37;45624.03;;;-140.64;100.00
7930;BME280;4010;42.698;23.124;2022-10-16T05:39:04;45881.97;;;-140.64;100.00
7930;BME280;4010;42.698;23.124;2022-10-16T05:41:33;45366.13;;;-140.64;100.00
7930;BME280;4010;42.698;23.124;2022-10-16T05:43:59;43819.09;;;-140.64;100.00
7930;BME280;4010;42.698;23.124;2022-10-16T05:46:26;43819.09;;;-140.64;100.00
7930;BME280;4010;42.698;23.124;2022-10-16T05:48:53;43045.84;;;-140.64;100.00
7930;BME280;4010;42.698;23.124;2022-10-16T05:51:19;42530.44;;;-140.64;100.00
7930;BME280;4010;42.698;23.124;2022-10-16T05:53:46;42788.13;;;-140.64;100.00
7930;BME280;4010;42.698;23.124;2022-10-16T05:56:13;42272.78;;;-140.64;100.00
7930;BME280;4010;42.698;23.124;2022-10-16T05:58:41;41499.88;;;-140.64;100.00
7930;BME280;4010;42.698;23.124;2022-10-16T06:01:11;40469.63;;;-140.64;100.00
7930;BME280;4010;42.698;23.124;2022-10-16T06:03:38;38667.47;;;-140.64;100.00
7930;BME280;4010;42.698;23.124;2022-10-16T06:06:08;36866.25;;;-140.64;100.00
7930;BME280;4010;42.698;23.124;2022-10-16T06:08:35;35580.28;;;-140.64;100.00
7930;BME280;4010;42.698;23.124;2022-10-16T06:11:02;36094.59;;;-140.64;100.00
7930;BME280;4010;42.698;23.124;2022-10-16T06:13:29;37380.78;;;-140.64;100.00
7930;BME280;4010;42.698;23.124;2022-10-16T06:15:58;38410.09;;;-140.64;100.00
7930;BME280;4010;42.698;23.124;2022-10-16T06:18:26;40212.13;;;-140.64;100.00
7930;BME280;4010;42.698;23.124;2022-10-16T06:20:53;44076.88;;;-140.64;100.00
7930;BME280;4010;42.698;23.124;2022-10-16T06:23:20;49236.81;;;-140.64;100.00
7930;BME280;4010;42.698;23.124;2022-10-16T06:25:47;52336.56;;;-140.64;100.00
7930;BME280;4010;42.698;23.124;2022-10-16T06:28:14;56991.50;;;-140.64;100.00
7930;BME280;4010;42.698;23.124;2022-10-16T06:30:42;61652.84;;;-140.64;100.00
7930;BME280;4010;42.698;23.124;2022-10-16T06:33:10;67099.16;;;-140.64;100.00
7930;BME280;4010;42.698;23.124;2022-10-16T06:35:37;63208.06;;;-140.64;100.00
7930;BME280;4010;42.698;23.124;2022-10-16T06:38:04;74894.72;;;-140.64;100.00
7930;BME280;4010;42.698;23.124;2022-10-16T06:40:30;71254.59;;;-140.64;100.00
7930;BME280;4010;42.698;23.124;2022-10-16T06:42:57;81925.91;;;-140.64;100.00
7930;BME280;4010;42.698;23.124;2022-10-16T06:45:24;92630.41;;;-140.64;100.00
7930;BME280;4010;42.698;23.124;2022-10-16T06:47:51;91323.19;;;-140.64;100.00
7930;BME280;4010;42.698;23.124;2022-10-16T06:50:19;100221.91;;;-140.64;100.00
7930;BME280;4010;42.698;23.124;2022-10-16T06:52:45;114395.91;;;-140.64;100.00
7930;BME280;4010;42.698;23.124;2022-10-16T06:55:12;118021.94;;;-140.64;100.00
7930;BME280;4010;42.698;23.124;2022-10-16T06:57:40;118349.16;;;-140.64;100.00
7930;BME280;4010;42.698;23.124;2022-10-16T07:00:07;118349.16;;;-140.64;100.00
7930;BME280;4010;42.698;23.124;2022-10-16T07:02:34;118349.16;;;-140.64;100.00
7930;BME280;4010;42.698;23.124;2022-10-16T07:05:00;118349.16;;;-140.64;100.00
7930;BME280;4010;42.698;23.124;2022-10-16T07:07:31;118349.16;;;-140.64;100.00
7930;BME280;4010;42.698;23.124;2022-10-16T07:09:58;118349.16;;;-140.64;100.00
7930;BME280;4010;42.698;23.124;2022-10-16T07:12:24;118349.16;;;-140.64;100.00
7930;BME280;4010;42.698;23.124;2022-10-16T07:14:51;118349.16;;;-140.64;100.00
7930;BME280;4010;42.698;23.124;2022-10-16T07:17:19;118349.16;;;-140.64;100.00
7930;BME280;4010;42.698;23.124;2022-10-16T07:19:46;118349.16;;;-140.64;100.00
7930;BME280;4010;42.698;23.124;2022-10-16T07:22:12;118349.16;;;-140.64;100.00
7930;BME280;4010;42.698;23.124;2022-10-16T07:24:41;118349.16;;;-140.64;100.00
7930;BME280;4010;42.698;23.124;2022-10-16T07:27:08;118349.16;;;-140.64;100.00
7930;BME280;4010;42.698;23.124;2022-10-16T07:29:35;118349.16;;;-140.64;100.00
7930;BME280;4010;42.698;23.124;2022-10-16T07:32:02;118349.16;;;-140.64;100.00
7930;BME280;4010;42.698;23.124;2022-10-16T07:34:29;118349.16;;;-140.64;100.00
7930;BME280;4010;42.698;23.124;2022-10-16T07:36:56;118349.16;;;-140.64;100.00
7930;BME280;4010;42.698;23.124;2022-10-16T07:39:22;118349.16;;;-140.64;100.00
7930;BME280;4010;42.698;23.124;2022-10-16T07:41:51;118349.16;;;-140.64;100.00
7930;BME280;4010;42.698;23.124;2022-10-16T07:44:17;118349.16;;;-140.64;100.00
7930;BME280;4010;42.698;23.124;2022-10-16T07:46:44;118349.16;;;-140.64;100.00
7930;BME280;4010;42.698;23.124;2022-10-16T07:49:11;118349.16;;;-140.64;100.00
7930;BME280;4010;42.698;23.124;2022-10-16T07:51:37;118349.16;;;-140.64;100.00
7930;BME280;4010;42.698;23.124;2022-10-16T07:54:04;118349.16;;;-140.64;100.00
7930;BME280;4010;42.698;23.124;2022-10-16T07:56:31;118349.16;;;-140.64;100.00
7930;BME280;4010;42.698;23.124;2022-10-16T07:59:00;118349.16;;;-140.64;100.00
7930;BME280;4010;42.698;23.124;2022-10-16T08:01:27;118349.16;;;-140.64;100.00
7930;BME280;4010;42.698;23.124;2022-10-16T08:03:53;118349.16;;;-140.64;100.00
7930;BME280;4010;42.698;23.124;2022-10-16T08:06:21;118349.16;;;-140.64;100.00
7930;BME280;4010;42.698;23.124;2022-10-16T08:08:48;118349.16;;;-140.64;100.00
7930;BME280;4010;42.698;23.124;2022-10-16T08:11:15;118349.16;;;-140.64;100.00
7930;BME280;4010;42.698;23.124;2022-10-16T08:13:42;118349.16;;;-140.64;100.00
7930;BME280;4010;42.698;23.124;2022-10-16T08:16:10;118349.16;;;-140.64;100.00
7930;BME280;4010;42.698;23.124;2022-10-16T08:18:38;118349.16;;;-140.64;100.00
7930;BME280;4010;42.698;23.124;2022-10-16T08:21:07;118349.16;;;-140.64;100.00
7930;BME280;4010;42.698;23.124;2022-10-16T08:23:34;118349.16;;;-140.64;100.00
7930;BME280;4010;42.698;23.124;2022-10-16T08:26:06;118349.16;;;-140.64;100.00
7930;BME280;4010;42.698;23.124;2022-10-16T08:28:33;118349.16;;;-140.64;100.00
7930;BME280;4010;42.698;23.124;2022-10-16T08:31:08;118349.16;;;-140.64;100.00
7930;BME280;4010;42.698;23.124;2022-10-16T08:33:37;118349.16;;;-140.64;100.00
7930;BME280;4010;42.698;23.124;2022-10-16T08:36:05;118349.16;;;-140.64;100.00
7930;BME280;4010;42.698;23.124;2022-10-16T08:38:32;118349.16;;;-140.64;100.00
7930;BME280;4010;42.698;23.124;2022-10-16T08:44:18;118349.16;;;-140.64;100.00
7930;BME280;4010;42.698;23.124;2022-10-16T08:46:58;118349.16;;;-140.64;100.00
7930;BME280;4010;42.698;23.124;2022-10-16T08:49:31;118349.16;;;-140.64;100.00
7930;BME280;4010;42.698;23.124;2022-10-16T08:51:58;118349.16;;;-140.64;100.00
7930;BME280;4010;42.698;23.124;2022-10-16T08:54:29;118349.16;;;-140.64;100.00
7930;BME280;4010;42.698;23.124;2022-10-16T08:57:07;118349.16;;;-140.64;100.00
7930;BME280;4010;42.698;23.124;2022-10-16T08:59:35;118349.16;;;-140.64;100.00
7930;BME280;4010;42.698;23.124;2022-10-16T09:02:02;118349.16;;;-140.64;100.00
7930;BME280;4010;42.698;23.124;2022-10-16T09:05:17;118349.16;;;-140.64;100.00
7930;BME280;4010;42.698;23.124;2022-10-16T09:07:57;118349.16;;;-140.64;100.00
7930;BME280;4010;42.698;23.124;2022-10-16T09:10:37;118349.16;;;-140.64;100.00
7930;BME280;4010;42.698;23.124;2022-10-16T09:13:18;118349.16;;;-140.64;96.47
7930;BME280;4010;42.698;23.124;2022-10-16T09:15:54;118349.16;;;-140.64;93.71
7930;BME280;4010;42.698;23.124;2022-10-16T09:18:26;118349.16;;;-140.64;93.11
7930;BME280;4010;42.698;23.124;2022-10-16T09:21:02;118349.16;;;-140.64;94.96
7930;BME280;4010;42.698;23.124;2022-10-16T09:23:34;118349.16;;;-140.64;92.48
7930;BME280;4010;42.698;23.124;2022-10-16T09:26:02;118349.16;;;-140.64;95.29
7930;BME280;4010;42.698;23.124;2022-10-16T09:28:30;118349.16;;;-140.64;92.34
7930;BME280;4010;42.698;23.124;2022-10-16T09:30:57;118349.16;;;-140.64;92.80
7930;BME280;4010;42.698;23.124;2022-10-16T09:33:28;118349.16;;;-140.64;92.00
7930;BME280;4010;42.698;23.124;2022-10-16T09:35:57;118349.16;;;-140.64;86.99
7930;BME280;4010;42.698;23.124;2022-10-16T09:38:27;118349.16;;;-140.64;90.25
7930;BME280;4010;42.698;23.124;2022-10-16T09:40:55;118349.16;;;-140.64;85.73
7930;BME280;4010;42.698;23.124;2022-10-16T09:43:25;118349.16;;;-140.64;83.41
7930;BME280;4010;42.698;23.124;2022-10-16T09:45:58;118349.16;;;-140.64;82.62
7930;BME280;4010;42.698;23.124;2022-10-16T09:48:27;118349.16;;;-140.64;83.34
7930;BME280;4010;42.698;23.124;2022-10-16T09:51:01;118349.16;;;-140.64;87.67
7930;BME280;4010;42.698;23.124;2022-10-16T09:53:40;118349.16;;;-140.64;82.60
7930;BME280;4010;42.698;23.124;2022-10-16T09:56:10;118349.16;;;-140.64;79.24
7930;BME280;4010;42.698;23.124;2022-10-16T09:58:42;118349.16;;;-140.64;75.81
7930;BME280;4010;42.698;23.124;2022-10-16T10:01:12;118349.16;;;-140.64;77.39
7930;BME280;4010;42.698;23.124;2022-10-16T10:03:42;118349.16;;;-140.64;84.59
7930;BME280;4010;42.698;23.124;2022-10-16T10:06:20;118349.16;;;-140.64;79.24
7930;BME280;4010;42.698;23.124;2022-10-16T10:08:59;118349.16;;;-140.64;79.74
7930;BME280;4010;42.698;23.124;2022-10-16T10:11:49;118349.16;;;-140.64;80.91
7930;BME280;4010;42.698;23.124;2022-10-16T10:14:19;118349.16;;;-140.64;79.35
7930;BME280;4010;42.698;23.124;2022-10-16T10:16:47;118349.16;;;-140.64;80.86
7930;BME280;4010;42.698;23.124;2022-10-16T10:19:15;118349.16;;;-140.64;77.48
7930;BME280;4010;42.698;23.124;2022-10-16T10:21:44;118349.16;;;-140.64;75.19
7930;BME280;4010;42.698;23.124;2022-10-16T10:24:13;118349.16;;;-140.64;74.92
7930;BME280;4010;42.698;23.124;2022-10-16T10:26:47;118349.16;;;-140.64;79.30
7930;BME280;4010;42.698;23.124;2022-10-16T10:29:24;118349.16;;;-140.64;80.71
7930;BME280;4010;42.698;23.124;2022-10-16T10:31:57;118349.16;;;-140.64;75.96
7930;BME280;4010;42.698;23.124;2022-10-16T10:34:41;118349.16;;;-140.64;72.62
7930;BME280;4010;42.698;23.124;2022-10-16T10:37:24;118349.16;;;-140.64;72.95
7930;BME280;4010;42.698;23.124;2022-10-16T10:39:56;118349.16;;;-140.64;74.17
7930;BME280;4010;42.698;23.124;2022-10-16T10:42:32;118349.16;;;-140.64;71.11
7930;BME280;4010;42.698;23.124;2022-10-16T10:45:18;118349.16;;;-140.64;67.35
7930;BME280;4010;42.698;23.124;2022-10-16T10:47:59;118349.16;;;-140.64;70.90
7930;BME280;4010;42.698;23.124;2022-10-16T10:50:35;118349.16;;;-140.64;70.86
7930;BME280;4010;42.698;23.124;2022-10-16T10:53:12;118349.16;;;-140.64;67.25
7930;BME280;4010;42.698;23.124;2022-10-16T10:55:45;118349.16;;;-140.64;71.84
7930;BME280;4010;42.698;23.124;2022-10-16T10:58:35;118349.16;;;-140.64;70.65
7930;BME280;4010;42.698;23.124;2022-10-16T11:01:08;118349.16;;;-140.64;69.23
7930;BME280;4010;42.698;23.124;2022-10-16T11:06:35;118349.16;;;-140.64;77.61
7930;BME280;4010;42.698;23.124;2022-10-16T11:09:09;118349.16;;;-140.64;70.84
7930;BME280;4010;42.698;23.124;2022-10-16T11:11:42;118349.16;;;-140.64;70.03
7930;BME280;4010;42.698;23.124;2022-10-16T11:14:14;118349.16;;;-140.64;68.05
7930;BME280;4010;42.698;23.124;2022-10-16T11:16:49;118349.16;;;-140.64;65.37
7930;BME280;4010;42.698;23.124;2022-10-16T11:19:26;118349.16;;;-140.64;67.42
7930;BME280;4010;42.698;23.124;2022-10-16T11:22:01;118349.16;;;-140.64;67.56
7930;BME280;4010;42.698;23.124;2022-10-16T11:24:37;118349.16;;;-140.64;66.86
7930;BME280;4010;42.698;23.124;2022-10-16T11:27:09;118349.16;;;-140.64;62.80
7930;BME280;4010;42.698;23.124;2022-10-16T11:29:45;118349.16;;;-140.64;62.89
7930;BME280;4010;42.698;23.124;2022-10-16T11:32:19;118349.16;;;-140.64;61.71
7930;BME280;4010;42.698;23.124;2022-10-16T11:34:50;118349.16;;;-140.64;60.02
7930;BME280;4010;42.698;23.124;2022-10-16T11:37:21;118349.16;;;-140.64;63.77
7930;BME280;4010;42.698;23.124;2022-10-16T11:39:52;118349.16;;;-140.64;65.84
7930;BME280;4010;42.698;23.124;2022-10-16T11:42:25;118349.16;;;-140.64;63.54
7930;BME280;4010;42.698;23.124;2022-10-16T11:44:59;118349.16;;;-140.64;61.32
7930;BME280;4010;42.698;23.124;2022-10-16T11:47:34;118349.16;;;-140.64;62.85
7930;BME280;4010;42.698;23.124;2022-10-16T11:50:06;118349.16;;;-140.64;64.92
7930;BME280;4010;42.698;23.124;2022-10-16T11:52:40;118349.16;;;-140.64;64.63
7930;BME280;4010;42.698;23.124;2022-10-16T11:55:15;118349.16;;;-140.64;60.80
7930;BME280;4010;42.698;23.124;2022-10-16T11:57:45;118349.16;;;-140.64;58.59
7930;BME280;4010;42.698;23.124;2022-10-16T12:00:20;118349.16;;;-140.64;58.68
7930;BME280;4010;42.698;23.124;2022-10-16T12:02:53;118349.16;;;-140.64;63.46
7930;BME280;4010;42.698;23.124;2022-10-16T12:05:28;118349.16;;;-140.64;63.21
7930;BME280;4010;42.698;23.124;2022-10-16T12:08:06;118349.16;;;-140.64;61.41
7930;BME280;4010;42.698;23.124;2022-10-16T12:10:38;118349.16;;;-140.64;59.93
7930;BME280;4010;42.698;23.124;2022-10-16T12:13:32;118349.16;;;-140.64;63.98
7930;BME280;4010;42.698;23.124;2022-10-16T12:16:21;118349.16;;;-140.64;62.28
7930;BME280;4010;42.698;23.124;2022-10-16T12:18:48;118349.16;;;-140.64;59.27
7930;BME280;4010;42.698;23.124;2022-10-16T12:21:17;118349.16;;;-140.64;58.20
7930;BME280;4010;42.698;23.124;2022-10-16T12:23:49;118349.16;;;-140.64;60.66
7930;BME280;4010;42.698;23.124;2022-10-16T12:26:25;118349.16;;;-140.64;59.20
7930;BME280;4010;42.698;23.124;2022-10-16T12:28:53;118349.16;;;-140.64;59.00
7930;BME280;4010;42.698;23.124;2022-10-16T12:31:20;118349.16;;;-140.64;59.11
7930;BME280;4010;42.698;23.124;2022-10-16T12:34:02;118349.16;;;-140.64;57.97
7930;BME280;4010;42.698;23.124;2022-10-16T12:36:30;118349.16;;;-140.64;58.20
7930;BME280;4010;42.698;23.124;2022-10-16T12:38:58;118349.16;;;-140.64;58.87
7930;BME280;4010;42.698;23.124;2022-10-16T12:41:29;118349.16;;;-140.64;55.16
7930;BME280;4010;42.698;23.124;2022-10-16T12:43:57;118349.16;;;-140.64;54.19
7930;BME280;4010;42.698;23.124;2022-10-16T12:46:38;118349.16;;;-140.64;53.36
7930;BME280;4010;42.698;23.124;2022-10-16T12:49:18;118349.16;;;-140.64;54.04
7930;BME280;4010;42.698;23.124;2022-10-16T12:51:47;118349.16;;;-140.64;54.14
7930;BME280;4010;42.698;23.124;2022-10-16T12:54:15;118349.16;;;-140.64;54.55
7930;BME280;4010;42.698;23.124;2022-10-16T12:56:52;118349.16;;;-140.64;53.97
7930;BME280;4010;42.698;23.124;2022-10-16T12:59:29;118349.16;;;-140.64;51.97
7930;BME280;4010;42.698;23.124;2022-10-16T13:02:29;118349.16;;;-140.64;53.70